Time;durP1;ratioP1;P1;durP2;ratioP2;P2;SDS_P1;SDS_P2;PMS_P1;PMS_P2;Temp;Humidity;BMP_temperature;BMP_pressure;BME280_temperature;BME280_humidity;BME280_pressure;Samples;Min_cycle;Max_cycle;Signal;HPM_P1;HPM_P2
2023/01/14 00:02:00;;;;;;;;;;;6.20;99.90;;;;;;4924520;29;19933;-85
2023/01/14 00:04:25;;;;;;;;;;;6.20;99.90;;;;;;4938722;29;20350;-85
2023/01/14 00:06:51;;;;;;;;;;;6.10;99.90;;;;;;4940577;29;19926;-85
2023/01/14 00:09:16;;;;;;;;;;;6.10;99.90;;;;;;4939149;29;20403;-86
2023/01/14 00:11:51;;;;;;;;;;;6.10;99.90;;;;;;4939642;29;19927;-86
2023/01/14 00:14:21;;;;;;;;;;;6.50;99.90;;;;;;4939450;29;19930;-85
2023/01/14 00:16:47;;;;;;;;;;;6.10;99.90;;;;;;4939565;29;20346;-85
2023/01/14 00:19:14;;;;;;;;;;;6.20;99.90;;;;;;4939575;29;20028;-85
2023/01/14 00:21:41;;;;;;;;;;;6.30;99.90;;;;;;4939757;29;20006;-84
2023/01/14 00:24:07;;;;;;;;;;;6.50;99.90;;;;;;4939657;29;20295;-85
2023/01/14 00:26:33;;;;;;;;;;;6.20;99.90;;;;;;4939464;29;19927;-85
2023/01/14 00:28:58;;;;;;;;;;;6.40;99.90;;;;;;4939457;29;19978;-84
2023/01/14 00:31:25;;;;;;;;;;;6.50;99.90;;;;;;4939361;29;19933;-85
2023/01/14 00:33:51;;;;;;;;;;;6.10;99.90;;;;;;4938880;29;19967;-85
2023/01/14 00:36:19;;;;;;;;;;;6.20;99.90;;;;;;4938369;29;19986;-86
2023/01/14 00:38:44;;;;;;;;;;;6.20;99.90;;;;;;4939184;29;19980;-86
2023/01/14 00:41:10;;;;;;;;;;;7.00;99.90;;;;;;4939371;29;19969;-85
2023/01/14 00:43:36;;;;;;;;;;;6.10;99.90;;;;;;4939044;29;19926;-85
2023/01/14 00:46:02;;;;;;;;;;;6.10;99.90;;;;;;4939216;29;19926;-85
2023/01/14 00:48:28;;;;;;;;;;;6.20;99.90;;;;;;4923006;29;20025;-84
2023/01/14 00:50:53;;;;;;;;;;;6.20;99.90;;;;;;4939002;29;19981;-85
2023/01/14 00:53:19;;;;;;;;;;;6.20;99.90;;;;;;4938712;29;19927;-85
2023/01/14 00:55:44;;;;;;;;;;;6.30;99.90;;;;;;4938844;29;19930;-84
2023/01/14 00:58:10;;;;;;;;;;;6.40;99.90;;;;;;4938908;29;19926;-84
2023/01/14 01:00:35;;;;;;;;;;;6.40;99.90;;;;;;4938894;29;19979;-88
2023/01/14 01:03:01;;;;;;;;;;;6.40;99.90;;;;;;4938770;29;19934;-85
2023/01/14 01:05:26;;;;;;;;;;;6.40;99.90;;;;;;4938742;29;19930;-84
2023/01/14 01:07:52;;;;;;;;;;;6.50;99.90;;;;;;4939403;29;19969;-85
2023/01/14 01:10:17;;;;;;;;;;;6.50;99.90;;;;;;4939028;29;19938;-84
2023/01/14 01:12:43;;;;;;;;;;;6.50;99.90;;;;;;4923005;29;20342;-85
2023/01/14 01:15:09;;;;;;;;;;;6.50;99.90;;;;;;4938217;28;20319;-85
2023/01/14 01:17:35;;;;;;;;;;;6.50;99.90;;;;;;4938773;29;19926;-85
2023/01/14 01:20:00;;;;;;;;;;;6.60;99.90;;;;;;4938741;29;19970;-84
2023/01/14 01:22:27;;;;;;;;;;;6.50;99.90;;;;;;4938680;29;19930;-84
2023/01/14 01:24:53;;;;;;;;;;;7.60;99.90;;;;;;4938784;29;20367;-84
2023/01/14 01:27:18;;;;;;;;;;;6.50;99.90;;;;;;4938685;29;19933;-84
2023/01/14 01:29:44;;;;;;;;;;;6.50;99.90;;;;;;4938786;29;20363;-85
2023/01/14 01:32:10;;;;;;;;;;;6.40;99.90;;;;;;4954205;29;20347;-85
2023/01/14 01:34:35;;;;;;;;;;;7.00;99.90;;;;;;4938079;29;19934;-85
2023/01/14 01:37:01;;;;;;;;;;;6.40;99.90;;;;;;4937952;29;19926;-84
2023/01/14 01:39:26;;;;;;;;;;;6.30;99.90;;;;;;4938926;29;20005;-85
2023/01/14 01:41:52;;;;;;;;;;;6.30;99.90;;;;;;4922273;29;19937;-86
2023/01/14 01:44:17;;;;;;;;;;;6.20;99.90;;;;;;4939086;29;19927;-85
2023/01/14 01:46:43;;;;;;;;;;;6.20;99.90;;;;;;4939157;29;20359;-85
2023/01/14 01:49:14;;;;;;;;;;;6.10;99.90;;;;;;4955794;29;19927;-85
2023/01/14 01:51:45;;;;;;;;;;;6.10;99.90;;;;;;4922527;29;19926;-84
2023/01/14 01:54:11;;;;;;;;;;;6.00;99.90;;;;;;4938097;29;20248;-85
2023/01/14 01:56:39;;;;;;;;;;;6.00;99.90;;;;;;4922294;29;20005;-85
2023/01/14 01:59:08;;;;;;;;;;;6.10;99.90;;;;;;4938369;29;19926;-85
2023/01/14 02:01:34;;;;;;;;;;;5.80;99.90;;;;;;4922535;29;19926;-85
2023/01/14 02:04:00;;;;;;;;;;;5.70;99.90;;;;;;4938223;29;19970;-84
2023/01/14 02:06:26;;;;;;;;;;;5.70;99.90;;;;;;4938006;29;20379;-85
2023/01/14 02:08:53;;;;;;;;;;;5.70;99.90;;;;;;4938185;29;19927;-84
2023/01/14 02:11:22;;;;;;;;;;;5.70;99.90;;;;;;4938095;29;19927;-85
2023/01/14 02:14:14;;;;;;;;;;;5.70;99.90;;;;;;4937641;29;19930;-85
2023/01/14 02:16:55;;;;;;;;;;;5.70;99.90;;;;;;4916134;29;19981;-85
2023/01/14 02:19:32;;;;;;;;;;;5.80;99.90;;;;;;4937713;29;20390;-85
2023/01/14 02:22:11;;;;;;;;;;;5.80;99.90;;;;;;4938014;29;20274;-84
2023/01/14 02:24:58;;;;;;;;;;;5.80;99.90;;;;;;4938337;29;20331;-85
2023/01/14 02:27:32;;;;;;;;;;;5.90;99.90;;;;;;4939106;29;19927;-85
2023/01/14 02:30:01;;;;;;;;;;;5.90;99.90;;;;;;4941663;29;20074;-84
2023/01/14 02:32:29;;;;;;;;;;;5.90;99.90;;;;;;4942291;29;19937;-85
2023/01/14 02:35:03;;;;;;;;;;;6.60;99.90;;;;;;4941192;29;20438;-84
2023/01/14 02:37:32;;;;;;;;;;;5.90;99.90;;;;;;4957745;29;20300;-85
2023/01/14 02:40:05;;;;;;;;;;;5.80;99.90;;;;;;4941601;29;20327;-85
2023/01/14 02:45:24;;;;;;;;;;;6.30;99.90;;;;;;4941585;29;19933;-84
2023/01/14 02:47:50;;;;;;;;;;;5.80;99.90;;;;;;4942100;29;19977;-85
2023/01/14 02:50:16;;;;;;;;;;;5.80;99.90;;;;;;4941276;29;19933;-84
2023/01/14 02:52:42;;;;;;;;;;;5.70;99.90;;;;;;4941192;29;19949;-85
2023/01/14 02:55:26;;;;;;;;;;;5.60;99.90;;;;;;4941577;29;19926;-84
2023/01/14 02:58:02;;;;;;;;;;;5.50;99.90;;;;;;4941320;29;19927;-85
2023/01/14 03:00:34;;;;;;;;;;;5.50;99.90;;;;;;4940855;29;19927;-85
2023/01/14 03:03:00;;;;;;;;;;;5.40;99.90;;;;;;4941695;29;19949;-84
2023/01/14 03:05:44;;;;;;;;;;;5.40;99.90;;;;;;4940979;29;20435;-83
2023/01/14 03:08:16;;;;;;;;;;;5.20;99.90;;;;;;4941122;29;19934;-84
2023/01/14 03:10:45;;;;;;;;;;;5.20;99.90;;;;;;4941669;29;20314;-84
2023/01/14 03:13:29;;;;;;;;;;;5.60;99.90;;;;;;4940768;29;20072;-85
2023/01/14 03:16:00;;;;;;;;;;;5.20;99.90;;;;;;4940888;29;19977;-85
2023/01/14 03:18:40;;;;;;;;;;;5.60;99.90;;;;;;4941035;29;19982;-84
2023/01/14 03:21:09;;;;;;;;;;;5.20;99.90;;;;;;4940902;29;19927;-85
2023/01/14 03:23:41;;;;;;;;;;;5.20;99.90;;;;;;4940806;29;19927;-84
2023/01/14 03:26:08;;;;;;;;;;;5.20;99.90;;;;;;4941409;29;19931;-84
2023/01/14 03:28:36;;;;;;;;;;;5.70;99.90;;;;;;4940674;29;19946;-84
2023/01/14 03:31:03;;;;;;;;;;;5.40;99.90;;;;;;4940164;29;20379;-85
2023/01/14 03:33:40;;;;;;;;;;;5.30;99.90;;;;;;4940449;29;19933;-84
2023/01/14 03:36:06;;;;;;;;;;;5.10;99.90;;;;;;4939758;29;19982;-86
2023/01/14 03:38:35;;;;;;;;;;;5.00;99.90;;;;;;4939621;29;19926;-85
2023/01/14 03:41:01;;;;;;;;;;;6.00;99.90;;;;;;4939381;29;19952;-85
2023/01/14 03:43:53;;;;;;;;;;;4.90;99.90;;;;;;4940810;29;19931;-85
2023/01/14 03:46:19;;;;;;;;;;;4.90;99.90;;;;;;4936913;29;19936;-85
2023/01/14 03:48:44;;;;;;;;;;;4.90;99.90;;;;;;4924404;29;19927;-85
2023/01/14 03:51:29;;;;;;;;;;;4.90;99.90;;;;;;4924327;29;20284;-85
2023/01/14 03:54:13;;;;;;;;;;;4.80;99.90;;;;;;4940089;29;19978;-84
2023/01/14 03:56:45;;;;;;;;;;;4.90;99.90;;;;;;4940027;29;19933;-84
2023/01/14 03:59:13;;;;;;;;;;;4.80;99.90;;;;;;4940410;29;19948;-84
2023/01/14 04:01:43;;;;;;;;;;;5.10;99.90;;;;;;4939967;29;19972;-85
2023/01/14 04:04:09;;;;;;;;;;;4.70;99.90;;;;;;4939947;29;19982;-85
2023/01/14 04:06:35;;;;;;;;;;;4.70;99.90;;;;;;4923629;29;19927;-85
2023/01/14 04:09:01;;;;;;;;;;;5.70;99.90;;;;;;4939943;29;19927;-84
2023/01/14 04:11:26;;;;;;;;;;;5.10;99.90;;;;;;4939807;29;20040;-84
2023/01/14 04:16:36;;;;;;;;;;;4.70;99.90;;;;;;4940003;29;19964;-84
2023/01/14 04:19:02;;;;;;;;;;;5.20;99.90;;;;;;4939852;29;20017;-83
2023/01/14 04:21:27;;;;;;;;;;;4.70;99.90;;;;;;4939714;29;19933;-84
2023/01/14 04:23:53;;;;;;;;;;;4.70;99.90;;;;;;4940299;29;19926;-84
2023/01/14 04:26:18;;;;;;;;;;;4.70;99.90;;;;;;4923874;29;20355;-84
2023/01/14 04:28:44;;;;;;;;;;;5.30;99.90;;;;;;4939576;29;19930;-84
2023/01/14 04:31:09;;;;;;;;;;;4.80;99.90;;;;;;4939366;29;19973;-85
2023/01/14 04:33:35;;;;;;;;;;;4.70;99.90;;;;;;4939043;29;19934;-84
2023/01/14 04:36:00;;;;;;;;;;;4.70;99.90;;;;;;4938771;29;20371;-85
2023/01/14 04:38:26;;;;;;;;;;;4.70;99.90;;;;;;4939136;29;19937;-85
2023/01/14 04:40:52;;;;;;;;;;;5.00;99.90;;;;;;4939381;29;19933;-84
2023/01/14 04:43:18;;;;;;;;;;;5.40;99.90;;;;;;4939044;29;20444;-84
2023/01/14 04:45:44;;;;;;;;;;;6.10;99.90;;;;;;4938929;29;20021;-84
2023/01/14 04:48:09;;;;;;;;;;;4.70;99.90;;;;;;4923303;29;19973;-84
2023/01/14 04:50:36;;;;;;;;;;;4.70;99.90;;;;;;4923459;29;19930;-84
2023/01/14 04:53:05;;;;;;;;;;;5.60;99.90;;;;;;4939146;29;19934;-84
2023/01/14 04:55:30;;;;;;;;;;;4.60;99.90;;;;;;4938891;29;19926;-84
2023/01/14 04:57:56;;;;;;;;;;;6.00;99.90;;;;;;4938899;29;19936;-85
2023/01/14 05:00:21;;;;;;;;;;;5.10;99.90;;;;;;4939242;29;19926;-84
2023/01/14 05:02:47;;;;;;;;;;;4.60;99.90;;;;;;4939446;29;19926;-84
2023/01/14 05:05:12;;;;;;;;;;;5.40;99.90;;;;;;4938479;29;19930;-84
2023/01/14 05:07:38;;;;;;;;;;;4.70;99.90;;;;;;4938742;29;19927;-84
2023/01/14 05:10:04;;;;;;;;;;;5.40;99.90;;;;;;4939536;29;19980;-84
2023/01/14 05:12:29;;;;;;;;;;;4.60;99.90;;;;;;4922491;29;20350;-84
2023/01/14 05:14:55;;;;;;;;;;;4.60;99.90;;;;;;4938330;29;19981;-84
2023/01/14 05:17:20;;;;;;;;;;;5.70;99.90;;;;;;4939002;29;19946;-84
2023/01/14 05:19:46;;;;;;;;;;;5.90;99.90;;;;;;4938408;29;19931;-84
2023/01/14 05:22:11;;;;;;;;;;;4.60;99.90;;;;;;4938903;29;20024;-85
2023/01/14 05:24:37;;;;;;;;;;;4.60;99.90;;;;;;4922709;29;19933;-84
2023/01/14 05:27:02;;;;;;;;;;;5.30;99.90;;;;;;4938550;29;19927;-84
2023/01/14 05:29:28;;;;;;;;;;;4.60;99.90;;;;;;4938699;29;19927;-84
2023/01/14 05:31:54;;;;;;;;;;;5.50;99.90;;;;;;4938683;29;19927;-84
2023/01/14 05:34:19;;;;;;;;;;;5.40;99.90;;;;;;4938137;29;19931;-85
2023/01/14 05:36:45;;;;;;;;;;;6.10;99.90;;;;;;4921932;29;19926;-84
2023/01/14 05:39:10;;;;;;;;;;;4.70;99.90;;;;;;4938301;29;19942;-84
2023/01/14 05:45:37;;;;;;;;;;;5.10;99.90;;;;;;4938111;29;19930;-84
2023/01/14 05:47:06;;;;;;;;;;;4.70;99.90;;;;;;4939007;29;20025;-84
2023/01/14 05:49:31;;;;;;;;;;;5.80;99.90;;;;;;4938166;29;20005;-84
2023/01/14 05:51:57;;;;;;;;;;;4.70;99.90;;;;;;4938125;29;19978;-84
2023/01/14 05:54:22;;;;;;;;;;;5.60;99.90;;;;;;4938135;29;19941;-84
2023/01/14 05:56:48;;;;;;;;;;;4.70;99.90;;;;;;4938801;29;19970;-86
2023/01/14 05:59:13;;;;;;;;;;;4.80;99.90;;;;;;4938486;29;20058;-84
2023/01/14 06:07:07;;;;;;;;;;;5.60;99.90;;;;;;4942117;29;20009;-84
2023/01/14 06:09:33;;;;;;;;;;;5.40;99.90;;;;;;4941981;29;20021;-84
2023/01/14 06:12:02;;;;;;;;;;;5.40;99.90;;;;;;4942026;29;19982;-85
2023/01/14 06:14:34;;;;;;;;;;;5.70;99.90;;;;;;4957896;29;19949;-85
2023/01/14 06:17:02;;;;;;;;;;;4.70;99.90;;;;;;4941910;29;19926;-84
2023/01/14 06:19:28;;;;;;;;;;;4.70;99.90;;;;;;4941802;29;19933;-84
2023/01/14 06:21:53;;;;;;;;;;;5.50;99.90;;;;;;4941889;29;19926;-85
2023/01/14 06:24:19;;;;;;;;;;;5.70;99.90;;;;;;4941998;29;19926;-85
2023/01/14 06:26:44;;;;;;;;;;;4.70;99.90;;;;;;4942442;29;19933;-85
2023/01/14 06:29:11;;;;;;;;;;;5.20;99.90;;;;;;4941747;29;19933;-85
2023/01/14 06:31:37;;;;;;;;;;;5.80;99.90;;;;;;4941990;29;20038;-84
2023/01/14 06:34:02;;;;;;;;;;;4.80;99.90;;;;;;4942161;29;19934;-85
2023/01/14 06:36:29;;;;;;;;;;;5.50;99.90;;;;;;4941064;29;19927;-84
2023/01/14 06:38:54;;;;;;;;;;;6.30;99.90;;;;;;4941880;29;20058;-84
2023/01/14 06:41:20;;;;;;;;;;;5.50;99.90;;;;;;4941206;29;20450;-85
2023/01/14 06:43:46;;;;;;;;;;;4.80;99.90;;;;;;4941514;29;19926;-85
2023/01/14 06:46:13;;;;;;;;;;;6.00;99.90;;;;;;4941538;29;19926;-85
2023/01/14 06:48:39;;;;;;;;;;;4.80;99.90;;;;;;4941578;29;19927;-85
2023/01/14 06:51:06;;;;;;;;;;;6.20;99.90;;;;;;4941238;29;19927;-85
2023/01/14 06:53:32;;;;;;;;;;;4.80;99.90;;;;;;4941348;29;19927;-84
2023/01/14 06:56:04;;;;;;;;;;;5.70;99.90;;;;;;4925319;29;19941;-87
2023/01/14 06:58:30;;;;;;;;;;;4.80;99.90;;;;;;4925331;29;19926;-85
2023/01/14 07:00:56;;;;;;;;;;;4.80;99.90;;;;;;4941000;29;19933;-85
2023/01/14 07:03:22;;;;;;;;;;;6.20;99.90;;;;;;4925272;29;19927;-84
2023/01/14 07:05:47;;;;;;;;;;;5.40;99.90;;;;;;4940527;29;20306;-85
2023/01/14 07:08:13;;;;;;;;;;;5.00;99.90;;;;;;4941070;29;19945;-85
2023/01/14 07:10:38;;;;;;;;;;;5.80;99.90;;;;;;4925011;29;20363;-86
2023/01/14 07:13:04;;;;;;;;;;;5.40;99.90;;;;;;4940581;28;19930;-84
2023/01/14 07:15:29;;;;;;;;;;;4.80;99.90;;;;;;4940574;29;19934;-85
2023/01/14 07:17:55;;;;;;;;;;;5.90;99.90;;;;;;4924991;29;19983;-84
2023/01/14 07:20:20;;;;;;;;;;;4.80;99.90;;;;;;4940792;29;19926;-84
2023/01/14 07:22:46;;;;;;;;;;;5.90;99.90;;;;;;4940512;29;20417;-84
2023/01/14 07:25:12;;;;;;;;;;;5.30;99.90;;;;;;4940765;29;19930;-84
2023/01/14 07:27:37;;;;;;;;;;;4.90;99.90;;;;;;4941002;29;19926;-84
2023/01/14 07:30:03;;;;;;;;;;;5.30;99.90;;;;;;4941308;29;20316;-85
2023/01/14 07:32:31;;;;;;;;;;;5.00;99.90;;;;;;4941146;29;19933;-84
2023/01/14 07:34:56;;;;;;;;;;;5.50;99.90;;;;;;4940020;29;19934;-85
2023/01/14 07:37:22;;;;;;;;;;;6.10;99.90;;;;;;4939527;29;20284;-85
2023/01/14 07:39:47;;;;;;;;;;;5.10;99.90;;;;;;4940392;29;19949;-84
2023/01/14 07:42:16;;;;;;;;;;;5.70;99.90;;;;;;4940124;29;19930;-85
2023/01/14 07:44:43;;;;;;;;;;;5.30;99.90;;;;;;4940972;29;20250;-85
2023/01/14 07:47:13;;;;;;;;;;;5.50;99.90;;;;;;4940238;29;19927;-84
2023/01/14 07:49:41;;;;;;;;;;;5.10;99.90;;;;;;4940194;29;20009;-85
2023/01/14 07:52:12;;;;;;;;;;;5.30;99.90;;;;;;4940125;29;20024;-85
2023/01/14 07:54:38;;;;;;;;;;;5.40;99.90;;;;;;4940202;29;20030;-84
2023/01/14 07:57:04;;;;;;;;;;;5.10;99.90;;;;;;4940143;29;20013;-84
2023/01/14 07:59:29;;;;;;;;;;;5.80;99.90;;;;;;4940063;29;19933;-84
2023/01/14 08:01:55;;;;;;;;;;;5.20;99.90;;;;;;4940104;29;19942;-85
2023/01/14 08:04:20;;;;;;;;;;;6.70;99.90;;;;;;4939841;29;19927;-85
2023/01/14 08:06:46;;;;;;;;;;;5.30;99.90;;;;;;4940033;29;20366;-86
2023/01/14 08:09:11;;;;;;;;;;;5.30;99.90;;;;;;4939629;29;19934;-85
2023/01/14 08:11:37;;;;;;;;;;;5.30;99.90;;;;;;4939475;29;19927;-85
2023/01/14 08:14:03;;;;;;;;;;;5.30;99.90;;;;;;4924097;29;19926;-85
2023/01/14 08:16:28;;;;;;;;;;;5.30;99.90;;;;;;4939743;29;19926;-85
2023/01/14 08:18:54;;;;;;;;;;;5.30;99.90;;;;;;4940034;29;20316;-87
2023/01/14 08:21:19;;;;;;;;;;;5.40;99.90;;;;;;4923714;29;19930;-87
2023/01/14 08:23:45;;;;;;;;;;;5.30;99.90;;;;;;4940401;29;20049;-88
2023/01/14 08:26:11;;;;;;;;;;;5.30;99.90;;;;;;4922960;29;19978;-87
2023/01/14 08:28:40;;;;;;;;;;;6.30;99.90;;;;;;4940318;29;19973;-86
2023/01/14 08:31:07;;;;;;;;;;;6.10;99.90;;;;;;4939424;29;19954;-87
2023/01/14 08:33:33;;;;;;;;;;;5.40;99.90;;;;;;4939314;29;19927;-88
2023/01/14 08:36:05;;;;;;;;;;;5.40;99.90;;;;;;4923186;29;20347;-87
2023/01/14 08:38:35;;;;;;;;;;;5.40;99.90;;;;;;4939337;29;19926;-88
2023/01/14 08:41:05;;;;;;;;;;;5.40;99.90;;;;;;4924185;29;20025;-87
2023/01/14 08:43:30;;;;;;;;;;;5.40;99.90;;;;;;4924027;29;19927;-87
2023/01/14 08:45:56;;;;;;;;;;;6.30;99.90;;;;;;4938990;29;20474;-87
2023/01/14 08:48:21;;;;;;;;;;;5.30;99.90;;;;;;4939295;29;19926;-86
2023/01/14 08:50:47;;;;;;;;;;;5.90;99.90;;;;;;4939293;29;19927;-88
2023/01/14 08:53:12;;;;;;;;;;;5.40;99.90;;;;;;4938521;29;20017;-91
2023/01/14 08:55:38;;;;;;;;;;;5.40;99.90;;;;;;4939343;29;19938;-89
2023/01/14 08:58:07;;;;;;;;;;;5.40;99.90;;;;;;4939244;29;19934;-90
2023/01/14 09:00:33;;;;;;;;;;;5.40;99.90;;;;;;4938396;29;19926;-89
2023/01/14 09:02:59;;;;;;;;;;;5.90;99.90;;;;;;4923733;29;19934;-89
2023/01/14 09:05:25;;;;;;;;;;;5.40;99.90;;;;;;4938823;29;20279;-90
2023/01/14 09:18:55;;;;;;;;;;;5.40;99.90;;;;;;4939551;29;19997;-86
2023/01/14 09:21:22;;;;;;;;;;;5.40;99.90;;;;;;4938862;29;19927;-87
2023/01/14 09:23:48;;;;;;;;;;;5.30;99.90;;;;;;4923414;29;19927;-88
2023/01/14 09:26:13;;;;;;;;;;;5.50;99.90;;;;;;4922897;29;20013;-88
2023/01/14 09:28:39;;;;;;;;;;;5.40;99.90;;;;;;4939555;29;19926;-88
2023/01/14 09:31:05;;;;;;;;;;;5.30;99.90;;;;;;4939392;29;19927;-89
2023/01/14 09:33:30;;;;;;;;;;;5.40;99.90;;;;;;4939495;29;20263;-88
2023/01/14 09:35:59;;;;;;;;;;;6.70;99.90;;;;;;4922379;28;19936;-88
2023/01/14 09:38:24;;;;;;;;;;;5.40;99.90;;;;;;4923279;29;20041;-88
2023/01/14 09:40:50;;;;;;;;;;;5.30;99.90;;;;;;4939410;29;20127;-88
2023/01/14 09:43:17;;;;;;;;;;;6.20;99.90;;;;;;4938625;29;19933;-89
2023/01/14 09:45:43;;;;;;;;;;;6.40;99.90;;;;;;4938735;29;19949;-88
2023/01/14 09:48:11;;;;;;;;;;;5.30;99.90;;;;;;4938498;29;19926;-88
2023/01/14 09:50:43;;;;;;;;;;;5.30;99.90;;;;;;4938423;29;19931;-88
2023/01/14 09:53:14;;;;;;;;;;;5.30;99.90;;;;;;4938446;29;19948;-89
2023/01/14 09:55:43;;;;;;;;;;;5.40;99.90;;;;;;4939267;29;19973;-90
2023/01/14 09:58:11;;;;;;;;;;;6.00;99.90;;;;;;4939155;29;19926;-89
2023/01/14 10:00:55;;;;;;;;;;;5.40;99.90;;;;;;4938481;29;19931;-89
2023/01/14 10:03:29;;;;;;;;;;;5.40;99.90;;;;;;4938856;29;19930;-89
2023/01/14 10:06:07;;;;;;;;;;;5.40;99.90;;;;;;4954434;29;19926;-88
2023/01/14 10:08:36;;;;;;;;;;;5.40;99.90;;;;;;4938483;29;19930;-87
2023/01/14 10:11:04;;;;;;;;;;;6.20;99.90;;;;;;4938812;29;19931;-88
2023/01/14 10:13:32;;;;;;;;;;;5.50;99.90;;;;;;4922253;29;19978;-88
2023/01/14 10:16:08;;;;;;;;;;;5.50;99.90;;;;;;4938498;29;19926;-88
2023/01/14 10:18:55;;;;;;;;;;;5.40;99.90;;;;;;4938446;29;19970;-88
2023/01/14 10:21:32;;;;;;;;;;;6.70;99.90;;;;;;4936827;29;20247;-91
2023/01/14 10:23:57;;;;;;;;;;;5.50;99.90;;;;;;4938397;29;20013;-88
2023/01/14 10:26:26;;;;;;;;;;;6.10;99.90;;;;;;4923132;29;19968;-91
2023/01/14 10:28:52;;;;;;;;;;;6.90;99.90;;;;;;4940301;29;20026;-89
2023/01/14 10:31:28;;;;;;;;;;;5.60;99.90;;;;;;4938876;29;19926;-87
2023/01/14 10:33:57;;;;;;;;;;;5.70;99.90;;;;;;4938187;29;20422;-89
2023/01/14 10:36:23;;;;;;;;;;;5.70;99.90;;;;;;4937735;29;20291;-89
2023/01/14 10:38:50;;;;;;;;;;;4.40;99.90;;;;;;4922537;29;19933;-89
2023/01/14 10:41:16;;;;;;;;;;;6.50;99.90;;;;;;4938338;29;19933;-90
2023/01/14 10:43:43;;;;;;;;;;;5.80;99.90;;;;;;4938257;29;19926;-88
2023/01/14 10:46:13;;;;;;;;;;;5.90;99.90;;;;;;4938146;29;19930;-88
2023/01/14 10:48:47;;;;;;;;;;;6.40;99.90;;;;;;4939626;29;20262;-91
2023/01/14 10:51:39;;;;;;;;;;;5.80;99.90;;;;;;4941936;29;20096;-92
2023/01/14 10:54:09;;;;;;;;;;;5.90;99.90;;;;;;4938913;29;19926;-91
2023/01/14 10:56:35;;;;;;;;;;;6.00;99.90;;;;;;4941657;29;19926;-88
2023/01/14 10:59:00;;;;;;;;;;;6.00;99.90;;;;;;4941511;29;19951;-90
2023/01/14 11:01:26;;;;;;;;;;;6.00;99.90;;;;;;4941767;29;19931;-89
2023/01/14 11:03:52;;;;;;;;;;;6.10;99.90;;;;;;4942055;29;20013;-87
2023/01/14 11:06:17;;;;;;;;;;;6.10;99.90;;;;;;4941449;29;20296;-90
2023/01/14 11:08:46;;;;;;;;;;;6.10;99.90;;;;;;4925036;29;19927;-88
2023/01/14 11:11:17;;;;;;;;;;;6.10;99.90;;;;;;4941194;29;19933;-91
2023/01/14 11:13:44;;;;;;;;;;;6.20;99.90;;;;;;4941167;29;20365;-87
2023/01/14 11:16:25;;;;;;;;;;;5.70;99.90;;;;;;4925687;29;19933;-88
2023/01/14 11:19:00;;;;;;;;;;;6.20;99.90;;;;;;4941449;29;19933;-88
2023/01/14 11:21:27;;;;;;;;;;;6.20;99.90;;;;;;4925118;29;19931;-89
2023/01/14 11:24:06;;;;;;;;;;;6.30;99.90;;;;;;4941126;29;19967;-88
2023/01/14 11:26:33;;;;;;;;;;;6.30;99.90;;;;;;4941152;29;19959;-89
2023/01/14 11:29:17;;;;;;;;;;;6.20;99.90;;;;;;4941024;29;19927;-89
2023/01/14 11:31:44;;;;;;;;;;;6.40;99.90;;;;;;4942047;29;19966;-88
2023/01/14 11:34:30;;;;;;;;;;;6.40;99.90;;;;;;4925513;29;19927;-90
2023/01/14 11:37:16;;;;;;;;;;;6.40;99.90;;;;;;4940884;29;19949;-92
2023/01/14 11:39:51;;;;;;;;;;;6.30;99.90;;;;;;4941308;29;20327;-91
2023/01/14 11:42:26;;;;;;;;;;;6.30;99.90;;;;;;4925839;29;19930;-91
2023/01/14 11:44:58;;;;;;;;;;;6.30;99.90;;;;;;4940868;29;19933;-91
2023/01/14 11:47:24;;;;;;;;;;;6.20;99.90;;;;;;4940865;29;19926;-92
2023/01/14 11:50:08;;;;;;;;;;;6.30;99.90;;;;;;4940737;29;19927;-90
2023/01/14 11:52:34;;;;;;;;;;;6.40;99.90;;;;;;4941799;29;20268;-90
2023/01/14 11:55:00;;;;;;;;;;;6.40;99.90;;;;;;4924940;29;19945;-92
2023/01/14 11:57:26;;;;;;;;;;;6.80;99.90;;;;;;4941609;29;19974;-90
2023/01/14 11:59:53;;;;;;;;;;;6.40;99.90;;;;;;4939668;29;20386;-92
2023/01/14 12:02:35;;;;;;;;;;;6.40;99.90;;;;;;4924869;29;20363;-87
2023/01/14 12:05:04;;;;;;;;;;;6.40;99.90;;;;;;4956887;29;20375;-90
2023/01/14 12:07:50;;;;;;;;;;;6.40;99.90;;;;;;4924326;29;19938;-88
2023/01/14 12:10:18;;;;;;;;;;;6.40;99.90;;;;;;4924668;29;19927;-88
2023/01/14 12:19:12;;;;;;;;;;;6.50;99.90;;;;;;4919670;29;19993;-88
2023/01/14 12:21:47;;;;;;;;;;;6.50;99.90;;;;;;4920590;29;19991;-88
2023/01/14 12:24:22;;;;;;;;;;;6.50;99.90;;;;;;4933223;29;19982;-88
2023/01/14 12:26:48;;;;;;;;;;;6.50;99.90;;;;;;4940103;29;19977;-88
2023/01/14 12:29:23;;;;;;;;;;;6.50;99.90;;;;;;4939744;29;20379;-87
2023/01/14 12:32:05;;;;;;;;;;;6.50;99.90;;;;;;4939658;29;19927;-88
2023/01/14 12:34:33;;;;;;;;;;;6.50;99.90;;;;;;4939549;29;20464;-88
2023/01/14 12:36:59;;;;;;;;;;;6.60;99.90;;;;;;4939070;29;20369;-89
2023/01/14 12:48:05;;;;;;;;;;;7.10;99.90;;;;;;4939972;29;19984;-86
2023/01/14 12:50:31;;;;;;;;;;;6.80;99.90;;;;;;4923416;29;19977;-87
2023/01/14 12:52:58;;;;;;;;;;;6.80;99.90;;;;;;4939856;29;20334;-87
2023/01/14 12:55:31;;;;;;;;;;;6.80;99.90;;;;;;4938432;29;20328;-85
2023/01/14 12:57:58;;;;;;;;;;;6.80;99.90;;;;;;4939321;29;20294;-88
2023/01/14 13:00:26;;;;;;;;;;;7.30;99.90;;;;;;4923147;29;19931;-86
2023/01/14 13:02:54;;;;;;;;;;;6.90;99.90;;;;;;4939624;29;19973;-88
2023/01/14 13:05:30;;;;;;;;;;;7.00;99.90;;;;;;4938849;29;19934;-87
2023/01/14 13:07:58;;;;;;;;;;;7.00;99.90;;;;;;4938526;29;19926;-87
2023/01/14 13:10:31;;;;;;;;;;;7.10;99.90;;;;;;4939391;29;19934;-89
2023/01/14 13:12:57;;;;;;;;;;;7.10;99.90;;;;;;4938251;29;19938;-86
2023/01/14 13:15:27;;;;;;;;;;;7.20;99.90;;;;;;4937695;29;19926;-87
2023/01/14 13:17:54;;;;;;;;;;;7.20;99.90;;;;;;4922936;29;19973;-88
2023/01/14 13:20:29;;;;;;;;;;;7.20;99.90;;;;;;4923035;29;19927;-88
2023/01/14 13:23:05;;;;;;;;;;;7.30;99.90;;;;;;4938648;29;20390;-89
2023/01/14 13:25:37;;;;;;;;;;;7.30;99.90;;;;;;4938764;29;19934;-89
2023/01/14 13:28:23;;;;;;;;;;;7.40;99.90;;;;;;4938405;29;19934;-87
2023/01/14 13:30:49;;;;;;;;;;;7.40;99.90;;;;;;4915373;29;20295;-87
2023/01/14 13:33:16;;;;;;;;;;;7.40;99.90;;;;;;4938266;29;20355;-88
2023/01/14 13:35:52;;;;;;;;;;;7.50;99.90;;;;;;4937625;29;20013;-87
2023/01/14 13:38:19;;;;;;;;;;;7.60;99.90;;;;;;4938527;29;19933;-87
2023/01/14 13:40:53;;;;;;;;;;;7.60;99.90;;;;;;4939081;29;19926;-86
2023/01/14 13:43:18;;;;;;;;;;;7.60;99.90;;;;;;4938265;29;19927;-87
2023/01/14 13:45:49;;;;;;;;;;;7.70;99.90;;;;;;4938291;29;19938;-86
2023/01/14 13:48:20;;;;;;;;;;;7.70;99.90;;;;;;4938531;29;19926;-87
2023/01/14 13:50:46;;;;;;;;;;;7.90;99.90;;;;;;4938149;29;19930;-90
2023/01/14 13:53:15;;;;;;;;;;;7.70;99.90;;;;;;4937821;29;19932;-89
2023/01/14 13:55:48;;;;;;;;;;;7.80;99.90;;;;;;4937353;29;19926;-90
2023/01/14 13:58:20;;;;;;;;;;;8.00;99.90;;;;;;4938891;29;19949;-89
2023/01/14 14:01:06;;;;;;;;;;;7.90;99.90;;;;;;4938072;29;19998;-89
2023/01/14 14:03:38;;;;;;;;;;;7.90;99.90;;;;;;4937348;29;19927;-88
2023/01/14 14:06:19;;;;;;;;;;;8.00;99.90;;;;;;4922714;29;20340;-87
2023/01/14 14:09:01;;;;;;;;;;;7.90;99.90;;;;;;4938374;29;19927;-90
2023/01/14 14:11:29;;;;;;;;;;;8.30;99.90;;;;;;4938010;29;19991;-89
2023/01/14 14:14:14;;;;;;;;;;;8.00;99.90;;;;;;4938650;29;20304;-88
2023/01/14 14:16:51;;;;;;;;;;;8.10;99.90;;;;;;4925174;29;20000;-88
2023/01/14 14:19:25;;;;;;;;;;;8.10;99.90;;;;;;4938688;29;20442;-88
2023/01/14 14:21:53;;;;;;;;;;;8.10;99.90;;;;;;4937864;29;20423;-89
2023/01/14 14:24:22;;;;;;;;;;;8.20;99.90;;;;;;4939851;29;19995;-89
2023/01/14 14:26:50;;;;;;;;;;;8.30;99.90;;;;;;4926030;29;19945;-89
2023/01/14 14:29:16;;;;;;;;;;;8.30;99.90;;;;;;4941889;29;19927;-88
2023/01/14 14:31:46;;;;;;;;;;;8.30;99.90;;;;;;4925884;29;19933;-88
2023/01/14 14:34:20;;;;;;;;;;;8.40;99.90;;;;;;4941374;29;19926;-89
2023/01/14 14:36:57;;;;;;;;;;;8.40;99.90;;;;;;4957185;29;19926;-90
2023/01/14 14:39:33;;;;;;;;;;;8.40;99.90;;;;;;4941609;29;19927;-90
2023/01/14 14:42:01;;;;;;;;;;;8.40;99.90;;;;;;4925495;29;19949;-87
2023/01/14 14:44:28;;;;;;;;;;;8.50;99.90;;;;;;4941311;29;19931;-87
2023/01/14 14:46:54;;;;;;;;;;;8.50;99.90;;;;;;4957143;29;20375;-89
2023/01/14 14:49:29;;;;;;;;;;;8.60;99.90;;;;;;4926258;29;19945;-91
2023/01/14 14:51:56;;;;;;;;;;;8.50;99.90;;;;;;4941571;29;19975;-90
2023/01/14 14:54:25;;;;;;;;;;;8.60;99.90;;;;;;4925764;29;19927;-92
2023/01/14 14:56:50;;;;;;;;;;;8.60;99.90;;;;;;4941360;29;20316;-92
2023/01/14 14:59:16;;;;;;;;;;;8.60;99.90;;;;;;4941919;29;20005;-89
2023/01/14 15:01:42;;;;;;;;;;;8.80;99.90;;;;;;4926033;29;20368;-90
2023/01/14 15:04:14;;;;;;;;;;;9.10;99.90;;;;;;4942027;29;20371;-88
2023/01/14 15:06:40;;;;;;;;;;;8.70;99.90;;;;;;4943149;29;20276;-89
2023/01/14 15:09:09;;;;;;;;;;;8.80;99.90;;;;;;4944634;29;19927;-92
2023/01/14 15:11:37;;;;;;;;;;;8.70;99.90;;;;;;4942258;29;19927;-90
2023/01/14 15:14:03;;;;;;;;;;;8.80;99.90;;;;;;4958186;29;19975;-95
2023/01/14 15:16:34;;;;;;;;;;;8.40;99.90;;;;;;4942452;29;20061;-90
2023/01/14 15:19:00;;;;;;;;;;;8.80;99.90;;;;;;4949520;29;20355;-89
2023/01/14 15:21:33;;;;;;;;;;;8.80;99.90;;;;;;4963079;28;19926;-91